createdAt,value
2022-11-24T00:02:40.907Z,1.10
2022-11-24T00:06:23.570Z,1.00
2022-11-24T00:10:05.619Z,0.80
2022-11-24T00:13:47.642Z,1.13
2022-11-24T00:17:29.455Z,0.90
2022-11-24T00:21:11.992Z,0.83
2022-11-24T00:24:53.693Z,1.23
2022-11-24T00:28:36.613Z,1.13
2022-11-24T00:32:18.323Z,1.67
2022-11-24T00:36:00.691Z,0.70
2022-11-24T00:39:42.458Z,1.07
2022-11-24T00:43:24.377Z,1.77
2022-11-24T00:47:06.579Z,1.30
2022-11-24T00:50:59.896Z,1.33
2022-11-24T00:54:41.600Z,1.10
2022-11-24T00:58:24.477Z,1.60
2022-11-24T01:02:06.229Z,1.10
2022-11-24T01:05:48.519Z,1.83
2022-11-24T01:09:30.221Z,1.70
2022-11-24T01:13:13.280Z,1.70
2022-11-24T01:16:55.608Z,1.60
2022-11-24T01:20:37.712Z,1.70
2022-11-24T01:24:19.593Z,1.40
2022-11-24T01:28:01.279Z,1.37
2022-11-24T01:31:43.013Z,1.60
2022-11-24T01:35:24.787Z,1.83
2022-11-24T01:39:06.499Z,2.30
2022-11-24T01:42:52.547Z,2.50
2022-11-24T01:46:45.192Z,2.50
2022-11-24T01:50:27.137Z,2.30
2022-11-24T01:54:12.895Z,2.17
2022-11-24T01:58:01.965Z,1.80
2022-11-24T02:01:43.984Z,1.63
2022-11-24T02:05:50.091Z,2.43
2022-11-24T02:09:43.460Z,2.10
2022-11-24T02:13:25.332Z,2.03
2022-11-24T02:17:07.240Z,1.77
2022-11-24T02:20:49.025Z,2.40
2022-11-24T02:24:47.216Z,2.00
2022-11-24T02:28:32.955Z,2.20
2022-11-24T02:32:16.170Z,2.43
2022-11-24T02:35:57.929Z,2.57
2022-11-24T02:39:39.671Z,2.50
2022-11-24T02:43:23.504Z,2.70
2022-11-24T02:47:10.473Z,2.63
2022-11-24T02:50:52.155Z,2.57
2022-11-24T02:54:34.476Z,2.67
2022-11-24T02:58:16.375Z,2.33
2022-11-24T03:01:58.231Z,2.07
2022-11-24T03:05:40.031Z,2.33
2022-11-24T03:09:21.819Z,3.40
2022-11-24T03:13:03.573Z,2.60
2022-11-24T03:16:45.284Z,3.87
2022-11-24T03:20:27.007Z,2.47
2022-11-24T03:24:09.072Z,2.60
2022-11-24T03:27:51.143Z,2.27
2022-11-24T03:31:32.980Z,2.53
2022-11-24T03:35:14.778Z,2.97
2022-11-24T03:38:56.484Z,3.03
2022-11-24T03:42:38.173Z,2.87
2022-11-24T03:46:19.935Z,3.07
2022-11-24T03:50:01.792Z,2.20
2022-11-24T03:53:43.593Z,3.00
2022-11-24T03:57:25.473Z,2.63
2022-11-24T04:01:07.275Z,2.63
2022-11-24T04:04:50.820Z,2.53
2022-11-24T04:08:32.564Z,2.17
2022-11-24T04:12:32.668Z,2.30
2022-11-24T04:16:14.519Z,3.03
2022-11-24T04:19:56.264Z,2.93
2022-11-24T04:23:37.978Z,2.87
2022-11-24T04:27:19.685Z,2.20
2022-11-24T04:31:05.929Z,2.67
2022-11-24T04:34:47.691Z,2.83
2022-11-24T04:39:24.932Z,2.67
2022-11-24T04:42:31.139Z,3.03
2022-11-24T04:46:12.901Z,2.60
2022-11-24T04:49:54.982Z,2.90
2022-11-24T04:53:36.768Z,2.47
2022-11-24T04:57:24.068Z,3.10
2022-11-24T05:01:09.051Z,3.03
2022-11-24T05:04:51.278Z,2.67
2022-11-24T05:08:33.040Z,2.67
2022-11-24T05:12:14.729Z,2.47
2022-11-24T05:15:56.617Z,2.90
2022-11-24T05:19:38.724Z,3.00
2022-11-24T05:23:20.428Z,2.53
2022-11-24T05:27:02.167Z,3.43
2022-11-24T05:30:43.966Z,3.87
2022-11-24T05:34:26.165Z,3.67
2022-11-24T05:38:08.191Z,2.30
2022-11-24T05:41:49.872Z,2.57
2022-11-24T05:45:31.560Z,2.47
2022-11-24T05:49:13.284Z,2.80
2022-11-24T05:52:54.986Z,2.80
2022-11-24T05:56:36.691Z,2.90
2022-11-24T06:00:19.953Z,5.60
2022-11-24T06:04:01.710Z,4.40
2022-11-24T06:07:43.651Z,3.10
2022-11-24T06:11:25.362Z,3.63
2022-11-24T06:15:07.540Z,3.37
2022-11-24T06:18:49.331Z,3.53
2022-11-24T06:22:31.069Z,3.17
2022-11-24T06:26:12.802Z,3.57
2022-11-24T06:29:54.502Z,3.20
2022-11-24T06:33:37.806Z,3.27
2022-11-24T06:37:19.824Z,3.23
2022-11-24T06:41:07.050Z,3.70
2022-11-24T06:44:49.049Z,3.83
2022-11-24T06:48:31.530Z,3.50
2022-11-24T06:52:13.195Z,3.67
2022-11-24T06:56:00.568Z,3.37
2022-11-24T06:59:42.263Z,3.70
2022-11-24T07:03:23.971Z,3.63
2022-11-24T07:07:05.685Z,4.03
2022-11-24T07:10:47.347Z,3.83
2022-11-24T07:14:29.108Z,3.60
2022-11-24T07:18:10.893Z,3.10
2022-11-24T07:21:52.625Z,3.80
2022-11-24T07:25:34.334Z,3.07
2022-11-24T07:29:16.140Z,3.63
2022-11-24T07:33:01.971Z,3.83
2022-11-24T07:36:45.104Z,4.40
2022-11-24T07:40:27.223Z,4.30
2022-11-24T07:44:08.941Z,4.53
2022-11-24T07:47:50.729Z,4.37
2022-11-24T07:51:32.413Z,4.53
2022-11-24T07:55:14.288Z,4.73
2022-11-24T07:58:55.976Z,3.80
2022-11-24T08:02:37.748Z,3.37
2022-11-24T08:06:32.294Z,4.77
2022-11-24T08:10:18.056Z,4.37
2022-11-24T08:13:59.816Z,4.40
2022-11-24T08:17:41.525Z,4.73
2022-11-24T08:21:24.104Z,4.87
2022-11-24T08:25:06.334Z,4.93
2022-11-24T08:28:48.431Z,4.47
2022-11-24T08:32:30.169Z,4.77
2022-11-24T08:36:14.529Z,6.53
2022-11-24T08:39:56.220Z,5.13
2022-11-24T08:43:38.756Z,6.23
2022-11-24T08:47:21.521Z,5.50
2022-11-24T08:51:11.402Z,5.77
2022-11-24T08:54:53.473Z,5.00
2022-11-24T08:58:35.981Z,5.37
2022-11-24T09:02:17.800Z,5.70
2022-11-24T09:05:59.497Z,5.10
2022-11-24T09:09:41.239Z,5.77
2022-11-24T09:13:22.924Z,5.33
2022-11-24T09:17:04.719Z,5.63
2022-11-24T09:20:46.519Z,4.90
2022-11-24T09:24:28.248Z,6.33
2022-11-24T09:28:09.935Z,5.07
2022-11-24T09:31:51.634Z,4.90
2022-11-24T09:35:36.639Z,3.80
2022-11-24T09:39:18.519Z,4.83
2022-11-24T09:43:11.283Z,4.57
2022-11-24T09:47:18.784Z,4.77
2022-11-24T09:51:04.126Z,4.83
2022-11-24T09:54:53.481Z,5.47
2022-11-24T09:58:54.738Z,5.20
2022-11-24T10:02:36.463Z,3.60
2022-11-24T10:06:34.639Z,4.87
2022-11-24T10:10:25.180Z,4.80
2022-11-24T10:14:25.065Z,5.35
2022-11-24T10:18:18.836Z,5.20
2022-11-24T10:22:03.495Z,4.60
2022-11-24T10:25:56.579Z,4.03
2022-11-24T10:29:40.772Z,4.47
2022-11-24T10:33:30.366Z,4.17
2022-11-24T10:37:36.005Z,3.92
2022-11-24T10:41:37.237Z,4.10
2022-11-24T10:45:22.339Z,3.63
2022-11-24T10:49:05.328Z,3.30
2022-11-24T10:53:08.931Z,3.10
2022-11-24T10:56:52.702Z,3.37
2022-11-24T11:00:35.876Z,2.77
2022-11-24T11:04:30.952Z,3.80
2022-11-24T11:08:32.231Z,3.37
2022-11-24T11:12:45.419Z,2.93
2022-11-24T11:16:53.871Z,3.60
2022-11-24T11:20:36.648Z,3.10
2022-11-24T11:24:18.642Z,4.43
2022-11-24T11:28:34.688Z,5.00
2022-11-24T11:36:31.373Z,4.00
2022-11-24T11:40:25.060Z,3.60
2022-11-24T11:44:34.219Z,3.83
2022-11-24T11:48:43.129Z,3.40
2022-11-24T11:52:40.450Z,3.90
2022-11-24T11:56:26.162Z,2.93
2022-11-24T12:00:14.332Z,3.07
2022-11-24T12:04:04.265Z,3.23
2022-11-24T12:08:20.679Z,2.65
2022-11-24T12:12:21.879Z,4.10
2022-11-24T12:16:31.010Z,3.60
2022-11-24T12:20:27.921Z,3.30
2022-11-24T12:24:45.047Z,4.23
2022-11-24T12:28:59.032Z,3.97
2022-11-24T12:32:49.307Z,2.90
2022-11-24T12:36:49.180Z,4.10
2022-11-24T12:41:18.322Z,3.37
2022-11-24T12:45:12.999Z,3.23
2022-11-24T12:49:36.356Z,3.60
2022-11-24T12:53:24.383Z,3.60
2022-11-24T12:57:10.050Z,3.90
2022-11-24T13:01:33.882Z,3.60
2022-11-24T13:05:32.214Z,3.87
2022-11-24T13:09:14.240Z,2.70
2022-11-24T13:13:03.744Z,2.57
2022-11-24T13:17:13.545Z,2.60
2022-11-24T13:20:51.487Z,2.83
2022-11-24T13:24:37.015Z,3.97
2022-11-24T13:29:12.995Z,3.13
2022-11-24T13:33:32.700Z,2.33
2022-11-24T13:37:31.306Z,2.17
2022-11-24T13:41:35.240Z,1.70
2022-11-24T13:45:35.795Z,2.53
2022-11-24T13:49:20.830Z,2.10
2022-11-24T13:53:18.941Z,2.17
2022-11-24T13:57:35.810Z,2.27
2022-11-24T14:01:30.719Z,2.00
2022-11-24T14:05:17.228Z,1.40
2022-11-24T14:09:21.120Z,1.57
2022-11-24T14:13:31.792Z,1.47
2022-11-24T14:17:23.024Z,1.40
2022-11-24T14:21:20.352Z,1.73
2022-11-24T14:25:03.533Z,2.10
2022-11-24T14:28:45.951Z,2.00
2022-11-24T14:32:28.140Z,2.43
2022-11-24T14:36:15.282Z,2.63
2022-11-24T14:39:57.020Z,2.03
2022-11-24T14:43:40.797Z,2.27
2022-11-24T14:47:32.531Z,2.30
2022-11-24T14:51:20.904Z,1.87
2022-11-24T14:55:17.605Z,1.57
2022-11-24T14:59:18.240Z,1.38
2022-11-24T15:03:05.802Z,1.30
2022-11-24T15:06:49.645Z,1.97
2022-11-24T15:10:36.983Z,1.00
2022-11-24T15:14:46.916Z,1.20
2022-11-24T15:18:43.011Z,1.30
2022-11-24T15:22:37.091Z,1.17
2022-11-24T15:26:18.741Z,1.20
2022-11-24T15:30:00.423Z,0.90
2022-11-24T15:33:42.383Z,0.93
2022-11-24T15:37:24.187Z,0.90
2022-11-24T15:41:19.094Z,0.90
2022-11-24T15:45:00.818Z,1.27
2022-11-24T15:48:42.487Z,1.23
2022-11-24T15:52:24.396Z,1.20
2022-11-24T15:56:15.345Z,1.10
2022-11-24T15:59:57.080Z,0.95
2022-11-24T16:03:46.853Z,0.90
2022-11-24T16:07:29.019Z,1.73
2022-11-24T16:11:10.875Z,1.40
2022-11-24T16:14:52.544Z,1.40
2022-11-24T16:18:35.425Z,1.50
2022-11-24T16:22:17.117Z,1.80
2022-11-24T16:25:58.821Z,2.13
2022-11-24T16:29:40.580Z,1.50
2022-11-24T16:33:22.248Z,1.10
2022-11-24T16:37:04.117Z,1.30
2022-11-24T16:40:51.423Z,1.30
2022-11-24T16:44:34.606Z,1.40
2022-11-24T16:48:16.547Z,1.43
2022-11-24T16:51:58.239Z,2.40
2022-11-24T16:55:39.919Z,1.90
2022-11-24T16:59:21.652Z,2.43
2022-11-24T17:03:03.337Z,2.13
2022-11-24T17:06:45.033Z,1.40
2022-11-24T17:10:26.728Z,1.67
2022-11-24T17:14:10.411Z,2.00
2022-11-24T17:18:22.515Z,2.23
2022-11-24T17:21:54.558Z,2.00
2022-11-24T17:25:36.219Z,2.47
2022-11-24T17:29:18.753Z,2.03
2022-11-24T17:33:00.467Z,2.30
2022-11-24T17:36:44.935Z,3.40
2022-11-24T17:40:29.038Z,2.97
2022-11-24T17:44:12.629Z,3.17
2022-11-24T17:47:54.662Z,3.33
2022-11-24T17:51:36.521Z,3.13
2022-11-24T17:55:18.196Z,2.57
2022-11-24T17:59:01.140Z,2.87
2022-11-24T18:02:42.890Z,2.60
2022-11-24T18:06:25.458Z,2.70
2022-11-24T18:10:08.542Z,2.47
2022-11-24T18:14:00.665Z,2.43
2022-11-24T18:17:43.243Z,2.57
2022-11-24T18:21:25.760Z,2.00
2022-11-24T18:25:07.794Z,2.07
2022-11-24T18:28:50.550Z,2.20
2022-11-24T18:32:32.647Z,1.83
2022-11-24T18:36:17.453Z,2.20
2022-11-24T18:39:59.871Z,2.90
2022-11-24T18:43:42.113Z,2.00
2022-11-24T18:47:23.822Z,1.70
2022-11-24T18:51:05.746Z,2.77
2022-11-24T18:54:47.429Z,2.57
2022-11-24T18:58:31.047Z,2.00
2022-11-24T19:02:12.940Z,2.87
2022-11-24T19:05:54.666Z,3.10
2022-11-24T19:09:36.560Z,2.67
2022-11-24T19:13:18.273Z,2.80
2022-11-24T19:17:03.901Z,3.00
2022-11-24T19:20:45.704Z,4.07
2022-11-24T19:24:27.753Z,4.77
2022-11-24T19:28:12.506Z,3.50
2022-11-24T19:31:54.723Z,2.93
2022-11-24T19:35:36.512Z,3.40
2022-11-24T19:39:18.331Z,2.30
2022-11-24T19:43:00.050Z,2.97
2022-11-24T19:46:41.784Z,2.70
2022-11-24T19:50:23.543Z,3.10
2022-11-24T19:54:12.761Z,3.30
2022-11-24T19:57:54.456Z,2.90
2022-11-24T20:01:39.190Z,2.33
2022-11-24T20:05:20.927Z,2.83
2022-11-24T20:09:04.331Z,2.80
2022-11-24T20:12:46.062Z,2.87
2022-11-24T20:16:30.728Z,3.20
2022-11-24T20:20:12.939Z,3.27
2022-11-24T20:24:01.087Z,3.53
2022-11-24T20:27:42.795Z,4.23
2022-11-24T20:31:28.021Z,4.10
2022-11-24T20:35:14.990Z,3.77
2022-11-24T20:39:01.822Z,3.93
2022-11-24T20:42:43.579Z,3.93
2022-11-24T20:46:28.429Z,4.27
2022-11-24T20:50:10.415Z,4.03
2022-11-24T20:53:54.161Z,4.57
2022-11-24T20:57:35.879Z,5.40
2022-11-24T21:01:23.022Z,3.20
2022-11-24T21:05:04.972Z,2.93
2022-11-24T21:08:46.694Z,3.53
2022-11-24T21:12:28.389Z,2.90
2022-11-24T21:16:14.542Z,2.33
2022-11-24T21:20:00.867Z,2.50
2022-11-24T21:23:45.028Z,3.17
2022-11-24T21:27:27.164Z,2.20
2022-11-24T21:31:17.428Z,3.00
2022-11-24T21:34:59.175Z,2.13
2022-11-24T21:38:42.616Z,2.43
2022-11-24T21:42:24.324Z,3.13
2022-11-24T21:46:08.303Z,2.37
2022-11-24T21:49:50.004Z,2.63
2022-11-24T21:53:34.294Z,2.63
2022-11-24T21:57:16.011Z,2.80
2022-11-24T22:01:08.955Z,3.03
2022-11-24T22:04:50.688Z,2.00
2022-11-24T22:08:32.690Z,2.23
2022-11-24T22:12:14.411Z,2.30
2022-11-24T22:16:08.031Z,2.50
2022-11-24T22:19:49.827Z,2.87
2022-11-24T22:23:32.523Z,2.70
2022-11-24T22:27:14.245Z,2.30
2022-11-24T22:30:55.943Z,2.40
2022-11-24T22:34:37.831Z,2.37
2022-11-24T22:38:19.609Z,2.83
2022-11-24T22:42:01.297Z,2.40
2022-11-24T22:45:43.002Z,2.20
2022-11-24T22:49:24.775Z,2.23
2022-11-24T22:53:06.453Z,2.30
2022-11-24T22:56:48.343Z,2.50
2022-11-24T23:00:30.076Z,3.07
2022-11-24T23:04:11.981Z,2.37
2022-11-24T23:07:53.762Z,2.67
2022-11-24T23:11:38.657Z,2.50
2022-11-24T23:15:20.604Z,2.90
2022-11-24T23:19:02.436Z,2.40
2022-11-24T23:22:44.186Z,2.30
2022-11-24T23:26:28.730Z,3.00
2022-11-24T23:30:10.671Z,2.20
2022-11-24T23:33:52.412Z,2.20
2022-11-24T23:38:00.001Z,2.00
2022-11-24T23:41:35.918Z,2.00
2022-11-24T23:45:17.689Z,2.00
2022-11-24T23:48:59.609Z,1.70
2022-11-24T23:52:41.376Z,2.07
2022-11-24T23:56:26.551Z,2.60
